Pineville, MO (64856)

2:27 PM CDT on March 24, 2017 (GMT -0500)
Brush Creek | | Change Station

Elev 1056 ft 36.51 °N, 94.34 °W | Updated 9 seconds ago

Rain
Rain
62.1 °F
Feels Like 62.1 °F
N
2.7
Wind Variable Wind from SSE
Gusts 4.9 mph

Today
High -- | Low -- °F
--% Chance of Precip.
Yesterday
High -- | Low -- °F
Precip. -- in
Pressure 29.93 in
Visibility 8.0 miles
Clouds Few 2700 ft
Scattered Clouds 3500 ft
Mostly Cloudy 4200 ft
Dew Point 59 °F
Humidity 89%
Rainfall 0.07 in
Snow Depth Not available.
7:14 AM 7:33 PM
Waning Crescent, 13% visible
METAR KVBT 241915Z AUTO 20008KT 8SM FEW027 SCT035 BKN042 16/13 A2993 RMK AO1 LTG DSNT SW P0010
Pressure 29.93 in
Visibility 8.0 miles
Clouds Few 2700 ft
Scattered Clouds 3500 ft
Mostly Cloudy 4200 ft
Dew Point 59 °F
Humidity 89%
Rainfall 0.07 in
Snow Depth Not available.
7:14 AM 7:33 PM
Waning Crescent, 13% visible
METAR KVBT 241915Z AUTO 20008KT 8SM FEW027 SCT035 BKN042 16/13 A2993 RMK AO1 LTG DSNT SW P0010

Get Severe Weather Alerts

Thanks for signing up!

Be on the lookout for a verification email in your inbox.

You'll start receiving the daily forecast at 8 AM.

×

10-Day Weather Forecast

Almanac

Astronomy

Mar. 24, 2017 Rise Set
Actual Time
Civil Twilight
Nautical Twilight
Astronomical Twilight
Moon
Length of Visible Light
Length of Day
Tomorrow will be .
, % of the Moon is Illuminated

Today's Extremes

State Highs State Lows

Community

WunderPhotos

Upload Photos

1,962,540 photos uploaded!

WunderBlog® & News

Nearby

Air Quality

  Air Quality AQ Index Pollutant
Not available.

Snow Depth

Station Depth Elevation

Earthquake Activity

City Distance Mag. Time & Date
Minimum magnitude displayed is 2.5.

Earthquake Activity

City Distance Mag. Time & Date
Minimum magnitude displayed is 2.5.

Coastal Water Temperatures

Place Temperature

Stations

Nearby Weather Stations

Station Location Temp. Windchill Dew Point Humidity Wind Precip. Elev Updated Type
                   

Watches & Warnings

There are currently no watches in effect.